Time;durP1;ratioP1;P1;durP2;ratioP2;P2;SDS_P1;SDS_P2;PMS_P1;PMS_P2;Temp;Humidity;BMP_temperature;BMP_pressure;BME280_temperature;BME280_humidity;BME280_pressure;Samples;Min_cycle;Max_cycle;Signal;HPM_P1;HPM_P2
2023/10/07 00:00:24;;;;;;;;;;;;;;;7.92;100.00;97560.91;5002532;28;20049;-67
2023/10/07 00:02:50;;;;;;;12.73;8.85;;;;;;;7.92;100.00;97557.41;4998104;28;19924;-67
2023/10/07 00:05:16;;;;;;;12.98;8.70;;;;;;;7.86;100.00;97556.78;4984649;28;20037;-66
2023/10/07 00:07:45;;;;;;;15.60;9.25;;;;;;;7.79;100.00;97554.56;5005740;28;20084;-65
2023/10/07 00:10:15;;;;;;;13.43;9.17;;;;;;;7.71;100.00;97563.59;5024183;28;20049;-68
2023/10/07 00:12:42;;;;;;;12.60;9.15;;;;;;;7.69;100.00;97559.56;5021296;28;20045;-67
2023/10/07 00:15:11;;;;;;;13.43;9.75;;;;;;;7.69;100.00;97559.56;5016359;28;20095;-68
2023/10/07 00:17:42;;;;;;;14.05;8.82;;;;;;;7.65;100.00;97549.34;5014752;28;20488;-66
2023/10/07 00:20:11;;;;;;;13.85;10.00;;;;;;;7.52;100.00;97550.34;5016678;28;20041;-67
2023/10/07 00:22:49;;;;;;;13.53;9.87;;;;;;;7.25;100.00;97551.53;5021530;28;20041;-65
2023/10/07 00:25:19;;;;;;;12.95;8.93;;;;;;;7.28;100.00;97545.44;5016367;28;20315;-66
2023/10/07 00:27:48;;;;;;;13.55;9.40;;;;;;;7.38;100.00;97545.09;5013978;28;20038;-67
2023/10/07 00:30:15;;;;;;;13.43;9.13;;;;;;;7.39;100.00;97540.44;5003413;28;20042;-67
2023/10/07 00:32:45;;;;;;;10.95;8.30;;;;;;;7.43;100.00;97541.38;5006438;28;20308;-66
2023/10/07 00:35:11;;;;;;;13.93;8.32;;;;;;;7.40;100.00;97534.69;4993314;28;20053;-66
2023/10/07 00:37:43;;;;;;;12.23;8.00;;;;;;;7.41;100.00;97538.19;4988253;28;20045;-65
2023/10/07 00:40:30;;;;;;;14.82;8.82;;;;;;;7.41;100.00;97538.19;4996762;28;20038;-65
2023/10/07 00:42:57;;;;;;;11.75;8.13;;;;;;;7.41;100.00;97538.19;5001386;28;20400;-66
2023/10/07 00:45:24;;;;;;;13.15;9.00;;;;;;;7.31;100.00;97546.72;4996722;28;20491;-66
2023/10/07 00:47:52;;;;;;;13.90;9.10;;;;;;;7.29;100.00;97541.56;5000173;28;20049;-67
2023/10/07 00:50:22;;;;;;;11.90;8.77;;;;;;;7.21;100.00;97543.19;4996595;28;20085;-67
2023/10/07 00:55:29;;;;;;;15.20;9.70;;;;;;;7.01;100.00;97541.16;4981910;28;20392;-67
2023/10/07 00:58:19;;;;;;;14.13;9.40;;;;;;;7.01;100.00;97533.78;5018316;28;20142;-67
2023/10/07 01:00:47;;;;;;;16.20;9.70;;;;;;;7.06;100.00;97533.63;5007769;28;20412;-67
2023/10/07 01:08:35;;;;;;;13.52;9.48;;;;;;;7.20;100.00;97519.00;4998600;28;20046;-66
2023/10/07 01:13:51;;;;;;;14.15;8.55;;;;;;;7.14;100.00;97521.09;5002358;28;20093;-67
2023/10/07 01:16:31;;;;;;;11.18;8.55;;;;;;;7.11;100.00;97510.84;5014202;28;20121;-67
2023/10/07 01:19:04;;;;;;;12.77;8.57;;;;;;;7.14;100.00;97512.94;5017906;28;20038;-66
2023/10/07 01:21:33;;;;;;;12.43;8.40;;;;;;;7.12;100.00;97512.47;5001816;28;20107;-66
2023/10/07 01:23:59;;;;;;;13.67;8.13;;;;;;;7.07;100.00;97518.06;5013756;28;20084;-66
2023/10/07 01:26:30;;;;;;;12.77;7.68;;;;;;;7.07;100.00;97518.88;5007636;28;20065;-66
2023/10/07 01:29:13;;;;;;;10.57;8.55;;;;;;;7.02;100.00;97513.63;5018650;28;20052;-66
2023/10/07 01:31:59;;;;;;;10.32;7.68;;;;;;;7.06;100.00;97524.66;5014885;28;20042;-66
2023/10/07 01:34:35;;;;;;;13.23;8.35;;;;;;;7.05;100.00;97512.16;5021562;28;20576;-65
2023/10/07 01:37:05;;;;;;;9.55;7.57;;;;;;;7.04;100.00;97502.38;5027162;28;20053;-67
2023/10/07 01:39:40;;;;;;;11.68;8.18;;;;;;;6.97;100.00;97497.44;5015656;28;20101;-67
2023/10/07 01:42:21;;;;;;;12.05;8.15;;;;;;;6.91;100.00;97503.38;5010967;28;20137;-67
2023/10/07 01:44:49;;;;;;;11.60;7.65;;;;;;;6.88;100.00;97500.16;5007290;28;20524;-67
2023/10/07 01:47:23;;;;;;;13.27;8.55;;;;;;;6.75;100.00;97498.41;4992317;28;20042;-67
2023/10/07 01:49:56;;;;;;;12.23;8.70;;;;;;;6.68;100.00;97498.91;5010092;28;20042;-67
2023/10/07 01:52:26;;;;;;;11.93;8.55;;;;;;;6.59;100.00;97500.84;4993496;28;22050;-64
2023/10/07 01:54:55;;;;;;;12.95;8.73;;;;;;;6.59;100.00;97506.28;5008829;28;20042;-66
2023/10/07 01:57:21;;;;;;;15.68;9.77;;;;;;;6.68;100.00;97511.69;5016129;28;21434;-66
2023/10/07 01:59:46;;;;;;;15.13;9.15;;;;;;;6.76;100.00;97505.47;5029637;28;20041;-66
2023/10/07 02:02:14;;;;;;;13.70;9.13;;;;;;;6.84;100.00;97503.84;4998549;28;20100;-66
2023/10/07 02:04:39;;;;;;;13.52;9.43;;;;;;;7.02;100.00;97496.44;5012974;28;20070;-67
2023/10/07 02:07:05;;;;;;;15.10;9.07;;;;;;;6.98;100.00;97495.50;5018445;28;20084;-67
2023/10/07 02:09:40;;;;;;;14.73;9.68;;;;;;;7.06;100.00;97492.75;5019741;28;20079;-66
2023/10/07 02:12:09;;;;;;;12.43;9.50;;;;;;;7.10;100.00;97498.38;5019217;28;20345;-66
2023/10/07 02:14:37;;;;;;;19.73;10.80;;;;;;;7.03;100.00;97503.50;5010641;28;20357;-66
2023/10/07 02:17:03;;;;;;;16.73;10.30;;;;;;;7.18;100.00;97496.72;5005465;28;20050;-67
2023/10/07 02:19:29;;;;;;;20.95;11.07;;;;;;;7.37;100.00;97491.72;5012839;28;20042;-66
2023/10/07 02:22:03;;;;;;;24.25;12.80;;;;;;;7.54;100.00;97496.28;5000037;28;20119;-66
2023/10/07 02:24:33;;;;;;;27.40;13.48;;;;;;;7.71;100.00;97487.25;4996826;28;20043;-66
2023/10/07 02:27:06;;;;;;;;;;;;;;;7.77;100.00;97490.59;5001354;28;20045;-66
2023/10/07 02:29:34;;;;;;;30.52;13.65;;;;;;;7.86;100.00;97488.59;4994423;28;19918;-66
2023/10/07 02:32:07;;;;;;;31.90;13.27;;;;;;;7.93;100.00;97491.59;5003533;28;20527;-66
2023/10/07 02:34:33;;;;;;;28.73;14.35;;;;;;;8.02;100.00;97489.63;5008244;28;20111;-66
2023/10/07 02:37:11;;;;;;;29.95;14.55;;;;;;;8.12;100.00;97495.81;5006902;28;20050;-65
2023/10/07 02:39:46;;;;;;;34.85;14.70;;;;;;;8.19;100.00;97490.66;5006801;28;20046;-67
2023/10/07 02:42:21;;;;;;;37.28;14.90;;;;;;;8.30;100.00;97501.97;4998420;28;20116;-67
2023/10/07 02:45:05;;;;;;;32.45;15.35;;;;;;;8.38;100.00;97495.66;5009337;28;20046;-67
2023/10/07 02:47:32;;;;;;;33.67;16.42;;;;;;;8.43;100.00;97500.97;4995379;28;20073;-67
2023/10/07 02:50:01;;;;;;;31.55;15.18;;;;;;;8.59;100.00;97504.69;4998951;28;20100;-66
2023/10/07 02:52:36;;;;;;;33.30;14.70;;;;;;;8.68;100.00;97501.88;4987212;28;20472;-66
2023/10/07 02:57:54;;;;;;;33.17;15.40;;;;;;;8.58;100.00;97494.88;5002261;28;20042;-67
2023/10/07 03:00:29;;;;;;;41.40;17.23;;;;;;;8.66;100.00;97490.50;5008934;28;20485;-67
2023/10/07 03:03:10;;;;;;;38.08;17.23;;;;;;;8.64;100.00;97494.69;4999218;28;20057;-66
2023/10/07 03:05:43;;;;;;;119.25;23.58;;;;;;;8.51;100.00;97499.28;5001515;28;20038;-66
2023/10/07 03:08:21;;;;;;;48.70;22.23;;;;;;;8.59;100.00;97484.78;4998599;28;20092;-68
2023/10/07 03:11:03;;;;;;;54.13;22.30;;;;;;;8.73;100.00;97498.13;5004618;28;20038;-67
2023/10/07 03:13:29;;;;;;;67.78;22.52;;;;;;;8.81;100.00;97500.00;4999040;28;20049;-67
2023/10/07 03:18:39;;;;;;;62.05;23.27;;;;;;;8.87;100.00;97503.31;4993214;28;20042;-67
2023/10/07 03:21:11;;;;;;;55.92;22.10;;;;;;;8.93;100.00;97494.59;4997807;28;20148;-68
2023/10/07 03:23:45;;;;;;;44.63;19.88;;;;;;;8.91;100.00;97485.94;5005782;28;20049;-67
2023/10/07 03:26:12;;;;;;;52.88;21.63;;;;;;;8.81;100.00;97491.81;5017322;28;20041;-67
2023/10/07 03:28:47;;;;;;;53.85;22.83;;;;;;;8.84;100.00;97499.34;5023347;28;20196;-67
2023/10/07 03:31:12;;;;;;;52.10;21.13;;;;;;;9.22;100.00;97495.59;5021961;28;20128;-67
2023/10/07 03:33:48;;;;;;;60.60;22.73;;;;;;;9.26;100.00;97495.69;5027927;28;20030;-67
2023/10/07 03:36:30;;;;;;;62.83;23.92;;;;;;;9.26;100.00;97503.91;5011031;28;20041;-66
2023/10/07 03:39:22;;;;;;;54.22;22.10;;;;;;;9.29;100.00;97503.22;5023247;28;20045;-67
2023/10/07 03:41:55;;;;;;;59.85;23.33;;;;;;;9.48;100.00;97502.69;5008399;28;20066;-66
2023/10/07 03:44:22;;;;;;;56.13;24.23;;;;;;;9.42;100.00;97499.38;5004219;28;20069;-66
2023/10/07 03:46:54;;;;;;;49.60;22.20;;;;;;;9.46;100.00;97502.22;5006271;28;20041;-66
2023/10/07 03:49:22;;;;;;;60.42;22.92;;;;;;;9.51;100.00;97505.53;5008989;28;20103;-65
2023/10/07 03:52:12;;;;;;;43.92;21.70;;;;;;;9.57;100.00;97509.63;5021636;28;20548;-65
2023/10/07 03:54:41;;;;;;;49.10;20.48;;;;;;;9.75;100.00;97512.16;5011234;28;20050;-65
2023/10/07 03:57:07;;;;;;;57.40;21.70;;;;;;;9.73;100.00;97511.72;5011158;28;20080;-65
2023/10/07 03:59:39;;;;;;;51.13;22.65;;;;;;;9.71;100.00;97516.72;5010313;28;20125;-67
2023/10/07 04:02:29;;;;;;;43.42;22.90;;;;;;;9.71;100.00;97523.00;5012839;28;20096;-65
2023/10/07 04:05:09;;;;;;;44.83;22.52;;;;;;;9.67;100.00;97524.00;5008060;28;20045;-67
2023/10/07 04:07:35;;;;;;;50.03;22.65;;;;;;;9.55;100.00;97522.84;5012415;28;20401;-66
2023/10/07 04:10:20;;;;;;;49.35;23.30;;;;;;;9.50;100.00;97520.34;5013643;28;20041;-66
2023/10/07 04:12:48;;;;;;;119.18;25.52;;;;;;;9.40;100.00;97518.06;4997325;28;20104;-67
2023/10/07 04:15:17;;;;;;;170.93;26.60;;;;;;;9.27;100.00;97525.41;5001099;28;20061;-67
2023/10/07 04:17:44;;;;;;;49.60;24.50;;;;;;;9.29;100.00;97534.09;5015912;28;20068;-66
2023/10/07 04:20:28;;;;;;;48.35;24.27;;;;;;;9.49;100.00;97537.06;4999979;28;20492;-66
2023/10/07 04:23:02;;;;;;;86.97;24.33;;;;;;;9.53;100.00;97530.59;5006251;28;20408;-68
2023/10/07 04:25:29;;;;;;;94.05;23.67;;;;;;;9.45;100.00;97536.97;5006463;28;20069;-68
2023/10/07 04:27:55;;;;;;;59.78;24.58;;;;;;;9.47;100.00;97539.34;5000365;28;20357;-66
2023/10/07 04:30:25;;;;;;;47.13;25.40;;;;;;;9.47;100.00;97534.72;4997680;28;20044;-67
2023/10/07 04:32:53;;;;;;;64.55;26.05;;;;;;;9.41;100.00;97540.72;5016223;28;20087;-67
2023/10/07 04:35:26;;;;;;;49.15;25.67;;;;;;;9.49;100.00;97540.63;4996486;28;20107;-68
2023/10/07 04:37:54;;;;;;;49.83;25.30;;;;;;;9.64;100.00;97539.16;5007208;28;20100;-67
2023/10/07 04:43:25;;;;;;;59.03;27.50;;;;;;;9.69;100.00;97549.09;4989186;28;20053;-67
2023/10/07 04:45:50;;;;;;;46.70;24.55;;;;;;;9.63;100.00;97547.72;5008795;28;20042;-67
2023/10/07 04:48:40;;;;;;;48.38;25.75;;;;;;;9.72;100.00;97549.22;4999254;28;20086;-68
2023/10/07 04:51:03;;;;;;;64.78;27.50;;;;;;;9.75;100.00;97547.72;5005383;28;20038;-68
2023/10/07 04:53:38;;;;;;;66.22;27.05;;;;;;;9.69;100.00;97555.38;5006995;28;20045;-69
2023/10/07 04:56:07;;;;;;;51.63;26.52;;;;;;;9.64;100.00;97560.25;5002783;28;20038;-68
2023/10/07 04:58:33;;;;;;;48.50;26.60;;;;;;;9.87;100.00;97552.44;5008338;28;20033;-67
2023/10/07 05:03:42;;;;;;;56.70;28.27;;;;;;;9.75;100.00;97548.53;5020615;28;20037;-68
2023/10/07 05:06:07;;;;;;;47.92;28.23;;;;;;;9.84;100.00;97553.88;5008332;28;20107;-68
2023/10/07 05:08:34;;;;;;;45.50;27.05;;;;;;;9.94;100.00;97547.19;5021170;28;20046;-68
2023/10/07 05:11:06;;;;;;;54.13;30.35;;;;;;;9.97;100.00;97542.97;5019575;28;20508;-68
2023/10/07 05:13:35;;;;;;;49.10;26.85;;;;;;;9.99;100.00;97544.19;5009294;28;20045;-68
2023/10/07 05:16:07;;;;;;;46.97;27.10;;;;;;;9.95;100.00;97555.03;5015011;28;20049;-68
2023/10/07 05:18:33;;;;;;;46.42;27.70;;;;;;;10.08;100.00;97558.59;5008379;28;20034;-69
2023/10/07 05:20:58;;;;;;;50.72;28.67;;;;;;;10.16;100.00;97556.88;5025382;28;20107;-69
2023/10/07 05:23:24;;;;;;;87.90;28.77;;;;;;;10.03;100.00;97553.34;5007948;28;20050;-66
2023/10/07 05:25:49;;;;;;;45.95;27.33;;;;;;;10.00;100.00;97558.72;5027693;28;20041;-66
2023/10/07 05:28:20;;;;;;;53.40;29.42;;;;;;;10.00;100.00;97562.22;5014522;28;20048;-66
2023/10/07 05:30:50;;;;;;;63.85;29.67;;;;;;;9.90;100.00;97566.22;5019687;28;20034;-66
2023/10/07 05:33:25;;;;;;;49.28;29.60;;;;;;;9.95;100.00;97579.66;5020414;28;20503;-67
2023/10/07 05:36:13;;;;;;;48.40;28.48;;;;;;;10.08;100.00;97590.63;5002179;28;20128;-65
2023/10/07 05:38:45;;;;;;;49.25;27.67;;;;;;;10.18;100.00;97592.91;4997316;28;20068;-67
2023/10/07 05:41:15;;;;;;;49.75;27.25;;;;;;;10.22;100.00;97593.81;5016275;28;20069;-67
2023/10/07 05:43:48;;;;;;;53.72;26.52;;;;;;;10.22;100.00;97598.50;5001235;28;20042;-67
2023/10/07 05:46:17;;;;;;;55.50;27.27;;;;;;;10.26;100.00;97610.38;4991272;28;20044;-67
2023/10/07 05:48:43;;;;;;;50.70;27.83;;;;;;;10.30;100.00;97608.56;5008017;28;20051;-67
2023/10/07 05:51:09;;;;;;;40.75;25.20;;;;;;;10.22;100.00;97609.47;5007918;28;20042;-67
2023/10/07 05:53:37;;;;;;;46.95;26.67;;;;;;;10.28;100.00;97610.81;5004903;28;20030;-67
2023/10/07 05:56:05;;;;;;;38.05;25.58;;;;;;;10.33;100.00;97602.41;5020247;28;20041;-67
2023/10/07 05:58:35;;;;;;;63.63;27.83;;;;;;;10.29;100.00;97594.03;5021689;28;20092;-67
2023/10/07 06:01:01;;;;;;;172.98;29.15;;;;;;;10.07;100.00;97597.25;5027217;28;20052;-67
2023/10/07 06:03:30;;;;;;;47.67;27.20;;;;;;;9.98;100.00;97597.34;5018958;28;20488;-67
2023/10/07 06:05:59;;;;;;;43.88;28.05;;;;;;;10.13;100.00;97599.41;5023767;28;20048;-67
2023/10/07 06:08:28;;;;;;;37.95;26.30;;;;;;;10.29;100.00;97606.94;5017953;28;20121;-67
2023/10/07 06:10:56;;;;;;;41.55;26.60;;;;;;;10.33;100.00;97607.88;5000242;28;20061;-67
2023/10/07 06:13:22;;;;;;;54.33;24.58;;;;;;;10.25;100.00;97608.78;5018302;28;20040;-67
2023/10/07 06:15:52;;;;;;;47.75;25.73;;;;;;;10.19;100.00;97613.69;5011416;28;20056;-67
2023/10/07 06:18:18;;;;;;;38.10;26.75;;;;;;;10.17;100.00;97613.19;5013640;28;20096;-67
2023/10/07 06:20:47;;;;;;;35.45;25.55;;;;;;;10.22;100.00;97612.19;5010493;28;20045;-67
2023/10/07 06:23:14;;;;;;;34.42;24.30;;;;;;;10.35;100.00;97621.22;5000613;28;20404;-67
2023/10/07 06:25:50;;;;;;;49.63;23.95;;;;;;;10.35;100.00;97623.97;5017113;28;20041;-67
2023/10/07 06:31:17;;;;;;;60.07;25.13;;;;;;;10.38;100.00;97632.31;5016432;28;20406;-66
2023/10/07 06:36:44;;;;;;;79.90;27.23;;;;;;;10.29;100.00;97626.91;5015177;28;20033;-66
2023/10/07 06:39:10;;;;;;;50.90;24.70;;;;;;;10.23;100.00;97625.53;4993414;28;20416;-66
2023/10/07 06:41:36;;;;;;;36.78;24.88;;;;;;;10.33;100.00;97622.41;5007844;28;20050;-67
2023/10/07 06:44:03;;;;;;;88.88;24.40;;;;;;;10.11;100.00;97625.53;4989708;28;20041;-68
2023/10/07 06:46:29;;;;;;;97.55;25.75;;;;;;;9.64;100.00;97617.69;5001661;28;20045;-67
2023/10/07 06:48:55;;;;;;;180.07;30.27;;;;;;;9.47;100.00;97622.22;4989501;28;20042;-67
2023/10/07 06:51:20;;;;;;;45.58;29.15;;;;;;;9.67;100.00;97608.78;4996515;28;20054;-66
2023/10/07 06:53:46;;;;;;;49.67;29.13;;;;;;;10.04;100.00;97608.88;5007548;28;20037;-66
2023/10/07 06:56:20;;;;;;;55.80;29.65;;;;;;;10.13;100.00;97618.56;4984332;28;20416;-68
2023/10/07 06:58:47;;;;;;;55.85;27.50;;;;;;;10.31;100.00;97616.44;5009376;28;20037;-69
2023/10/07 07:01:22;;;;;;;162.50;30.42;;;;;;;10.17;100.00;97621.41;5011663;28;20042;-67
2023/10/07 07:03:47;;;;;;;131.40;31.58;;;;;;;9.88;100.00;97623.22;5007142;28;20034;-66
2023/10/07 07:06:26;;;;;;;245.90;35.25;;;;;;;9.67;100.00;97620.56;5002150;28;20069;-67
2023/10/07 07:08:51;;;;;;;180.43;34.38;;;;;;;9.71;100.00;97635.16;5000460;28;20038;-67
2023/10/07 07:11:17;;;;;;;66.53;32.35;;;;;;;9.81;100.00;97639.38;4998730;28;20366;-67
2023/10/07 07:13:44;;;;;;;58.22;33.45;;;;;;;10.06;100.00;97642.97;5016384;28;20126;-68
2023/10/07 07:16:13;;;;;;;69.63;32.60;;;;;;;10.40;100.00;97646.44;5017062;28;20045;-68
2023/10/07 07:18:40;;;;;;;;;;;;;;;10.66;100.00;97665.28;5022820;28;20044;-68
2023/10/07 07:21:31;;;;;;;53.97;31.88;;;;;;;10.88;100.00;97652.25;5018793;28;20000;-68
2023/10/07 07:23:57;;;;;;;120.25;30.17;;;;;;;10.83;100.00;97656.00;5020153;28;20041;-67
2023/10/07 07:26:23;;;;;;;47.17;28.90;;;;;;;11.03;100.00;97670.69;5016313;28;21074;-71
2023/10/07 07:28:54;;;;;;;46.08;28.70;;;;;;;11.26;100.00;97671.00;5022807;28;20476;-71
2023/10/07 07:31:25;;;;;;;46.15;28.58;;;;;;;11.47;100.00;97676.31;5016902;28;20133;-67
2023/10/07 07:33:51;;;;;;;45.10;27.65;;;;;;;11.66;100.00;97672.09;5015230;28;20041;-69
2023/10/07 07:36:37;;;;;;;76.00;27.67;;;;;;;11.81;100.00;97674.09;5015697;28;20042;-68
2023/10/07 07:39:09;;;;;;;41.78;26.05;;;;;;;12.13;100.00;97673.38;5003820;28;20034;-66
2023/10/07 07:41:38;;;;;;;41.08;25.70;;;;;;;12.28;100.00;97683.59;5006086;28;20034;-69
2023/10/07 07:44:10;;;;;;;40.15;25.08;;;;;;;12.57;100.00;97687.06;5002821;28;20043;-66
2023/10/07 07:46:54;;;;;;;35.85;23.15;;;;;;;12.90;100.00;97689.38;5028223;28;20033;-69
2023/10/07 07:49:20;;;;;;;33.70;22.65;;;;;;;13.05;100.00;97685.00;5012864;28;20044;-69
2023/10/07 07:51:51;;;;;;;31.10;22.48;;;;;;;13.24;100.00;97680.72;5000186;28;20034;-69
2023/10/07 07:54:17;;;;;;;31.77;21.88;;;;;;;13.70;100.00;97680.88;5012429;28;20101;-69
2023/10/07 07:56:42;;;;;;;33.03;21.85;;;;;;;14.24;100.00;97684.63;5015399;28;20069;-70
2023/10/07 07:59:14;;;;;;;28.40;20.13;;;;;;;14.45;100.00;97679.50;5004105;28;20042;-70
2023/10/07 08:02:35;;;;;;;31.42;19.35;;;;;;;14.42;100.00;97683.00;5012437;28;20101;-69
2023/10/07 08:04:39;;;;;;;31.52;20.90;;;;;;;14.16;100.00;97683.72;5006069;28;20047;-70
2023/10/07 08:07:06;;;;;;;29.55;20.25;;;;;;;14.07;100.00;97692.22;5016423;28;20037;-67
2023/10/07 08:09:36;;;;;;;32.50;21.00;;;;;;;14.28;100.00;97702.06;5006260;28;20037;-70
2023/10/07 08:12:05;;;;;;;30.70;19.95;;;;;;;14.25;100.00;97703.56;5005090;28;20050;-67
2023/10/07 08:14:33;;;;;;;31.20;20.38;;;;;;;14.22;100.00;97718.06;5020130;28;20056;-69
2023/10/07 08:17:00;;;;;;;59.20;38.80;;;;;;;14.05;100.00;97710.28;5005509;28;20362;-69
2023/10/07 08:19:25;;;;;;;32.45;20.83;;;;;;;14.00;100.00;97705.06;5012280;28;20045;-68
2023/10/07 08:21:52;;;;;;;30.05;20.17;;;;;;;13.94;100.00;97701.81;5009809;28;20494;-69
2023/10/07 08:24:21;;;;;;;31.55;21.92;;;;;;;14.04;100.00;97714.19;5010055;28;20042;-69
2023/10/07 08:26:59;;;;;;;28.97;20.77;;;;;;;14.11;100.00;97715.09;5016601;28;20037;-70
2023/10/07 08:29:32;;;;;;;28.55;20.50;;;;;;;14.20;100.00;97705.81;5014851;28;20769;-69
2023/10/07 08:32:14;;;;;;;28.83;20.60;;;;;;;14.24;100.00;97709.44;5005718;28;20043;-69
2023/10/07 08:34:47;;;;;;;29.20;19.98;;;;;;;14.29;100.00;97707.16;5011008;28;20037;-69
2023/10/07 08:37:15;;;;;;;30.90;20.40;;;;;;;14.18;100.00;97700.69;5023849;28;20041;-68
2023/10/07 08:39:44;;;;;;;31.65;20.83;;;;;;;14.21;100.00;97696.41;5024805;28;20042;-68
2023/10/07 08:42:17;;;;;;;34.45;20.90;;;;;;;14.38;100.00;97695.13;5025815;28;20040;-67
2023/10/07 08:44:51;;;;;;;30.52;20.30;;;;;;;14.46;100.00;97699.59;5025591;28;20033;-69
2023/10/07 08:47:20;;;;;;;26.50;18.90;;;;;;;14.69;100.00;97707.88;5018755;28;20041;-70
2023/10/07 08:49:48;;;;;;;26.58;18.88;;;;;;;14.82;100.00;97703.75;5011011;28;20030;-70
2023/10/07 08:52:16;;;;;;;27.42;20.05;;;;;;;14.75;100.00;97700.06;4989344;28;20698;-70
2023/10/07 08:54:44;;;;;;;29.95;18.83;;;;;;;14.90;100.00;97691.66;5005475;28;20038;-70
2023/10/07 08:57:34;;;;;;;26.77;18.38;;;;;;;15.15;100.00;97685.72;4997988;28;20037;-70
2023/10/07 09:00:00;;;;;;;25.15;17.20;;;;;;;15.16;100.00;97703.06;4998923;28;20053;-70
2023/10/07 09:02:30;;;;;;;26.20;16.80;;;;;;;14.86;100.00;97693.56;5007090;28;20578;-70
2023/10/07 09:04:59;;;;;;;23.50;16.55;;;;;;;15.40;100.00;97710.13;4996594;28;20486;-70
2023/10/07 09:07:31;;;;;;;24.35;16.58;;;;;;;16.61;100.00;97716.19;5008650;28;20492;-68
2023/10/07 09:10:14;;;;;;;24.45;17.42;;;;;;;16.55;100.00;97716.94;5019637;28;20071;-68
2023/10/07 09:12:48;;;;;;;20.33;14.88;;;;;;;17.06;100.00;97713.41;4998954;28;20041;-69
2023/10/07 09:15:25;;;;;;;21.88;15.98;;;;;;;16.99;100.00;97716.91;5008595;28;20042;-69
2023/10/07 09:17:59;;;;;;;17.88;13.02;;;;;;;17.41;100.00;97712.03;5019134;28;20038;-70
2023/10/07 09:20:36;;;;;;;21.52;14.23;;;;;;;17.76;100.00;97700.34;4995058;28;20620;-69
2023/10/07 09:23:14;;;;;;;20.83;13.75;;;;;;;18.12;98.12;97711.56;5009218;28;20054;-67
2023/10/07 09:25:46;;;;;;;19.33;14.15;;;;;;;19.14;90.37;97718.00;5001314;28;20037;-68
2023/10/07 09:28:13;;;;;;;18.88;13.93;;;;;;;18.08;94.99;97702.47;4996297;28;20065;-69
2023/10/07 09:31:23;;;;;;;20.15;13.98;;;;;;;19.44;85.00;97696.09;4999996;28;20106;-69
2023/10/07 09:33:49;;;;;;;20.88;14.75;;;;;;;18.66;89.56;97706.09;5006466;28;20038;-69
2023/10/07 09:41:55;;;;;;;20.95;14.00;;;;;;;19.29;87.54;97714.03;4999823;28;20034;-69
2023/10/07 09:44:28;;;;;;;18.42;13.48;;;;;;;20.99;74.97;97723.09;4998342;28;20049;-70
2023/10/07 09:46:55;;;;;;;16.35;11.98;;;;;;;22.39;68.50;97720.75;5003130;28;20156;-69
2023/10/07 09:49:22;;;;;;;14.18;11.25;;;;;;;23.23;63.33;97730.22;4999269;28;20038;-70
2023/10/07 09:51:49;;;;;;;16.75;11.95;;;;;;;22.84;64.79;97726.84;5000045;28;20045;-71
2023/10/07 09:54:36;;;;;;;17.38;12.68;;;;;;;23.27;62.33;97716.97;5009497;28;20085;-70
2023/10/07 09:57:14;;;;;;;16.88;13.05;;;;;;;23.05;62.68;97708.19;5016219;28;20084;-66
2023/10/07 09:59:59;;;;;;;16.08;11.65;;;;;;;23.42;58.14;97711.91;4992658;28;20038;-70
2023/10/07 10:03:04;;;;;;;14.35;10.98;;;;;;;23.15;60.42;97717.59;5000314;28;20133;-70
2023/10/07 10:05:35;;;;;;;14.63;10.82;;;;;;;23.13;61.21;97711.63;4995338;28;20038;-70
2023/10/07 10:08:11;;;;;;;15.23;10.68;;;;;;;24.56;56.12;97707.97;5011971;28;20045;-69
2023/10/07 10:10:44;;;;;;;20.75;11.60;;;;;;;24.61;54.57;97713.03;5005956;28;20033;-69
2023/10/07 10:13:29;;;;;;;16.25;10.88;;;;;;;23.42;57.69;97704.28;5006345;28;20488;-68
2023/10/07 10:16:00;;;;;;;19.60;12.65;;;;;;;23.65;58.22;97703.44;4993424;28;20050;-68
2023/10/07 10:18:38;;;;;;;18.58;13.05;;;;;;;23.38;59.09;97711.19;5005072;28;20042;-69
2023/10/07 10:21:05;;;;;;;18.80;12.80;;;;;;;23.24;59.88;97712.22;5006552;28;20127;-67
2023/10/07 10:23:34;;;;;;;16.80;13.32;;;;;;;23.33;59.18;97711.66;5001216;28;20053;-70
2023/10/07 10:26:02;;;;;;;;;;;;;;;21.96;66.89;97702.56;5011482;28;20571;-69
2023/10/07 10:28:27;;;;;;;17.77;12.93;;;;;;;22.04;66.00;97703.25;5018392;28;19917;-70
2023/10/07 10:30:56;;;;;;;19.80;12.95;;;;;;;21.85;66.61;97699.13;5000896;28;20520;-70
2023/10/07 10:33:28;;;;;;;20.10;12.82;;;;;;;22.07;65.06;97689.25;4997083;28;20085;-70
2023/10/07 10:36:00;;;;;;;23.02;14.13;;;;;;;21.46;68.23;97687.22;5001634;28;20046;-69
2023/10/07 10:38:38;;;;;;;23.55;13.38;;;;;;;21.16;71.72;97685.94;4998061;28;20125;-69
2023/10/07 10:41:04;;;;;;;19.00;13.15;;;;;;;21.37;70.95;97678.53;5000025;28;20046;-65
2023/10/07 10:43:31;;;;;;;18.48;13.88;;;;;;;20.84;74.11;97677.88;5005129;28;20125;-69
2023/10/07 10:46:01;;;;;;;20.25;14.23;;;;;;;20.36;76.54;97665.50;5022163;28;20045;-69
2023/10/07 10:48:30;;;;;;;22.60;15.32;;;;;;;19.52;81.11;97669.13;5020395;28;20060;-69
2023/10/07 10:50:55;;;;;;;23.73;16.10;;;;;;;18.72;88.56;97653.78;4999860;28;20038;-69
2023/10/07 10:53:21;;;;;;;20.35;15.00;;;;;;;18.77;91.52;97656.16;5003771;28;20045;-69
2023/10/07 10:55:46;;;;;;;24.05;16.63;;;;;;;18.18;95.01;97659.31;5018761;28;20120;-70
2023/10/07 10:58:17;;;;;;;24.27;16.88;;;;;;;18.21;96.04;97657.75;5018381;28;20045;-69
2023/10/07 11:00:51;;;;;;;25.13;16.35;;;;;;;18.20;97.18;97650.59;5024961;28;20489;-69
2023/10/07 11:03:23;;;;;;;24.25;16.33;;;;;;;18.18;96.25;97641.88;5015790;28;20507;-69
2023/10/07 11:05:56;;;;;;;24.77;16.83;;;;;;;17.99;99.25;97637.47;5006855;28;20385;-70
2023/10/07 11:08:22;;;;;;;23.90;15.55;;;;;;;18.84;95.25;97635.97;5008491;28;20471;-70
2023/10/07 11:10:57;;;;;;;25.52;15.10;;;;;;;19.16;88.74;97641.47;5006758;28;20038;-69
2023/10/07 11:13:23;;;;;;;22.15;15.00;;;;;;;19.70;86.92;97641.25;5016957;28;20045;-69
2023/10/07 11:16:04;;;;;;;18.90;13.40;;;;;;;19.67;86.08;97639.28;5018370;28;20033;-69
2023/10/07 11:18:31;;;;;;;24.00;15.07;;;;;;;19.81;84.14;97635.66;5019278;28;20128;-69
2023/10/07 11:20:57;;;;;;;19.10;14.32;;;;;;;19.77;85.53;97629.31;5015241;28;20041;-70
2023/10/07 11:23:26;;;;;;;19.58;13.95;;;;;;;19.79;84.00;97643.59;5001319;28;20631;-70
2023/10/07 11:25:51;;;;;;;23.73;14.47;;;;;;;20.14;83.90;97637.03;5027379;28;20046;-69
2023/10/07 11:28:22;;;;;;;19.27;13.23;;;;;;;20.44;79.02;97646.78;5010924;28;20038;-69
2023/10/07 11:30:49;;;;;;;18.35;13.38;;;;;;;20.66;78.63;97639.06;5006523;28;20589;-69
2023/10/07 11:33:19;;;;;;;18.75;12.32;;;;;;;20.88;78.96;97639.66;5010297;28;20042;-70
2023/10/07 11:35:57;;;;;;;18.30;12.63;;;;;;;20.91;77.64;97640.84;5007713;28;20045;-69
2023/10/07 11:38:25;;;;;;;18.63;13.20;;;;;;;21.24;75.62;97635.72;4999868;28;20148;-69
2023/10/07 11:40:50;;;;;;;25.08;15.02;;;;;;;21.07;75.93;97627.16;5023540;28;20300;-69
2023/10/07 11:43:16;;;;;;;18.92;12.85;;;;;;;20.88;76.43;97642.44;5001299;28;20041;-68
2023/10/07 11:45:43;;;;;;;20.30;12.30;;;;;;;20.90;74.42;97630.91;5017628;28;20053;-70
2023/10/07 11:48:09;;;;;;;16.63;12.15;;;;;;;20.62;76.08;97630.75;5003482;28;20136;-70
2023/10/07 11:50:35;;;;;;;18.17;12.20;;;;;;;20.31;77.71;97618.66;5004894;28;20441;-68
2023/10/07 11:53:04;;;;;;;18.58;11.80;;;;;;;20.65;78.11;97620.00;5012678;28;20059;-69
2023/10/07 11:55:32;;;;;;;18.73;11.90;;;;;;;20.10;82.30;97622.38;4994379;28;20133;-69
2023/10/07 11:58:02;;;;;;;19.55;12.88;;;;;;;20.47;80.72;97629.25;5011064;28;20157;-68
2023/10/07 12:00:30;;;;;;;19.33;12.80;;;;;;;20.21;81.90;97617.53;4981456;28;20961;-69
2023/10/07 12:02:58;;;;;;;17.13;12.52;;;;;;;20.10;82.17;97627.94;4996608;28;20113;-69
2023/10/07 12:05:27;;;;;;;21.50;14.00;;;;;;;19.54;86.98;97621.50;5009929;28;20711;-68
2023/10/07 12:07:59;;;;;;;21.57;13.73;;;;;;;19.09;89.51;97622.03;4991700;28;20546;-67